createdAt,value
2023-11-28T00:00:34.686Z,99392.13
2023-11-28T00:03:07.295Z,99389.81
2023-11-28T00:05:39.916Z,99404.28
2023-11-28T00:08:12.437Z,99403.28
2023-11-28T00:10:45.007Z,99409.38
2023-11-28T00:13:17.738Z,99407.84
2023-11-28T00:15:50.449Z,99414.47
2023-11-28T00:18:23.155Z,99428.94
2023-11-28T00:20:55.817Z,99426.66
2023-11-28T00:23:28.266Z,99429.19
2023-11-28T00:26:00.869Z,99435.25
2023-11-28T00:28:33.390Z,99441.38
2023-11-28T00:31:06.100Z,99455.06
2023-11-28T00:33:38.764Z,99452.03
2023-11-28T00:36:13.997Z,99460.13
2023-11-28T00:38:46.566Z,99460.38
2023-11-28T00:41:19.908Z,99466.47
2023-11-28T00:43:54.020Z,99473.31
2023-11-28T00:46:26.830Z,99482.69
2023-11-28T00:48:59.468Z,99482.44
2023-11-28T00:51:32.042Z,99490.56
2023-11-28T00:54:04.544Z,99499.44
2023-11-28T00:56:37.362Z,99503.25
2023-11-28T00:59:09.879Z,99508.06
2023-11-28T01:01:42.468Z,99513.38
2023-11-28T01:04:15.080Z,99515.91
2023-11-28T01:06:47.557Z,99514.38
2023-11-28T01:09:19.997Z,99524.03
2023-11-28T01:11:52.559Z,99529.34
2023-11-28T01:14:25.190Z,99531.88
2023-11-28T01:16:57.942Z,99544.28
2023-11-28T01:19:30.469Z,99552.41
2023-11-28T01:22:03.708Z,99563.56
2023-11-28T01:24:36.613Z,99571.66
2023-11-28T01:27:10.337Z,99567.38
2023-11-28T01:29:43.403Z,99574.22
2023-11-28T01:32:17.014Z,99587.91
2023-11-28T01:34:49.670Z,99581.53
2023-11-28T01:37:22.841Z,99590.44
2023-11-28T01:39:56.610Z,99593.72
2023-11-28T01:42:31.414Z,99606.91
2023-11-28T01:45:05.510Z,99601.06
2023-11-28T01:47:39.431Z,99612.22
2023-11-28T01:50:14.118Z,99613.47
2023-11-28T01:52:46.867Z,99628.69
2023-11-28T01:55:20.063Z,99637.56
2023-11-28T01:57:52.990Z,99639.59
2023-11-28T02:00:25.513Z,99637.28
2023-11-28T02:03:01.434Z,99645.66
2023-11-28T02:05:35.239Z,99650.97
2023-11-28T02:08:14.027Z,99654.28
2023-11-28T02:10:46.631Z,99659.06
2023-11-28T02:13:19.484Z,99667.94
2023-11-28T02:15:55.815Z,99672.75
2023-11-28T02:18:28.400Z,99680.84
2023-11-28T02:21:00.929Z,99688.44
2023-11-28T02:23:34.247Z,99700.88
2023-11-28T02:26:26.246Z,99694.53
2023-11-28T02:28:58.889Z,99691.97
2023-11-28T02:31:32.805Z,99697.56
2023-11-28T02:34:05.470Z,99699.59
2023-11-28T02:36:38.004Z,99702.88
2023-11-28T02:39:11.483Z,99706.91
2023-11-28T02:41:43.921Z,99713.75
2023-11-28T02:44:16.413Z,99720.59
2023-11-28T02:46:49.031Z,99727.41
2023-11-28T02:49:21.604Z,99727.91
2023-11-28T02:51:54.106Z,99732.72
2023-11-28T02:54:26.649Z,99736.78
2023-11-28T02:56:59.220Z,99736.53
2023-11-28T02:59:31.796Z,99743.34
2023-11-28T03:02:05.709Z,99752.22
2023-11-28T03:04:39.420Z,99761.06
2023-11-28T03:07:12.090Z,99760.03
2023-11-28T03:09:44.591Z,99758.00
2023-11-28T03:12:17.125Z,99758.50
2023-11-28T03:14:49.722Z,99766.09
2023-11-28T03:17:23.748Z,99774.19
2023-11-28T03:19:56.356Z,99774.19
2023-11-28T03:22:46.152Z,99787.84
2023-11-28T03:25:18.662Z,99799.00
2023-11-28T03:27:51.264Z,99797.50
2023-11-28T03:30:26.032Z,99799.22
2023-11-28T03:32:58.472Z,99815.19
2023-11-28T03:35:30.972Z,99818.47
2023-11-28T03:38:06.953Z,99810.59
2023-11-28T03:40:53.702Z,99824.25
2023-11-28T03:43:26.208Z,99831.88
2023-11-28T03:45:58.894Z,99834.38
2023-11-28T03:48:31.417Z,99832.06
2023-11-28T03:51:04.264Z,99833.31
2023-11-28T03:53:37.333Z,99837.34
2023-11-28T03:56:10.431Z,99838.34
2023-11-28T03:58:42.957Z,99849.22
2023-11-28T04:01:16.159Z,99843.38
2023-11-28T04:03:48.638Z,99857.78
2023-11-28T04:06:21.197Z,99861.03
2023-11-28T04:08:54.306Z,99856.75
2023-11-28T04:11:26.777Z,99865.56
2023-11-28T04:14:00.285Z,99868.88
2023-11-28T04:16:33.167Z,99872.91
2023-11-28T04:19:05.810Z,99868.59
2023-11-28T04:21:38.311Z,99879.75
2023-11-28T04:24:10.741Z,99885.78
2023-11-28T04:26:43.590Z,99893.41
2023-11-28T04:29:17.095Z,99891.09
2023-11-28T04:31:49.762Z,99895.91
2023-11-28T04:34:22.284Z,99899.94
2023-11-28T04:36:54.884Z,99891.28
2023-11-28T04:39:27.516Z,99889.78
2023-11-28T04:42:00.134Z,99891.00
2023-11-28T04:44:33.241Z,99897.84
2023-11-28T04:47:05.915Z,99906.69
2023-11-28T04:49:39.064Z,99907.94
2023-11-28T04:52:11.716Z,99915.53
2023-11-28T04:54:44.320Z,99931.47
2023-11-28T04:57:16.817Z,99933.22
2023-11-28T04:59:49.704Z,99939.06
2023-11-28T05:02:22.369Z,99940.34
2023-11-28T05:04:55.436Z,99949.94
2023-11-28T05:07:27.951Z,99954.75
2023-11-28T05:10:00.676Z,99963.56
2023-11-28T05:12:36.772Z,99976.75
2023-11-28T05:15:09.416Z,99977.97
2023-11-28T05:17:42.085Z,99987.59
2023-11-28T05:20:14.754Z,99983.28
2023-11-28T05:22:47.360Z,99993.66
2023-11-28T05:25:20.116Z,99992.59
2023-11-28T05:27:52.645Z,100000.19
2023-11-28T05:30:26.088Z,100011.06
2023-11-28T05:32:58.659Z,100016.34
2023-11-28T05:35:31.560Z,100024.69
2023-11-28T05:38:04.056Z,100031.53
2023-11-28T05:40:36.627Z,100029.22
2023-11-28T05:43:09.216Z,100038.50
2023-11-28T05:45:41.662Z,100057.25
2023-11-28T05:48:14.254Z,100057.72
2023-11-28T05:50:46.754Z,100067.34
2023-11-28T05:53:20.883Z,100069.38
2023-11-28T05:55:53.390Z,100076.16
2023-11-28T05:58:26.694Z,100076.97
2023-11-28T06:00:59.478Z,100077.72
2023-11-28T06:03:32.100Z,100082.03
2023-11-28T06:06:04.855Z,100082.31
2023-11-28T06:08:37.636Z,100081.06
2023-11-28T06:11:10.888Z,100094.78
2023-11-28T06:13:43.542Z,100101.41
2023-11-28T06:16:16.180Z,100115.91
2023-11-28T06:18:48.737Z,100123.31
2023-11-28T06:21:21.185Z,100132.53
2023-11-28T06:23:53.811Z,100141.44
2023-11-28T06:26:26.258Z,100143.56
2023-11-28T06:28:59.361Z,100153.72
2023-11-28T06:31:32.096Z,100153.53
2023-11-28T06:34:04.564Z,100153.31
2023-11-28T06:36:38.069Z,100168.91
2023-11-28T06:39:10.953Z,100170.22
2023-11-28T06:41:49.500Z,100172.34
2023-11-28T06:44:22.212Z,100186.38
2023-11-28T06:46:55.957Z,100187.72
2023-11-28T06:49:28.666Z,100196.16
2023-11-28T06:52:03.142Z,100201.81
2023-11-28T06:54:35.658Z,100207.47
2023-11-28T06:57:09.015Z,100211.56
2023-11-28T06:59:41.596Z,100214.94
2023-11-28T07:02:14.930Z,100205.09
2023-11-28T07:04:47.581Z,100216.06
2023-11-28T07:07:20.179Z,100209.53
2023-11-28T07:09:52.696Z,100218.94
2023-11-28T07:12:26.482Z,100217.47
2023-11-28T07:15:01.872Z,100223.34
2023-11-28T07:17:35.135Z,100232.75
2023-11-28T07:20:09.074Z,100233.81
2023-11-28T07:22:41.747Z,100239.66
2023-11-28T07:25:15.678Z,100241.19
2023-11-28T07:27:48.316Z,100242.75
2023-11-28T07:30:20.900Z,100245.81
2023-11-28T07:32:53.597Z,100264.88
2023-11-28T07:35:26.276Z,100265.63
2023-11-28T07:37:58.921Z,100272.72
2023-11-28T07:40:34.596Z,100291.78
2023-11-28T07:43:07.307Z,100286.97
2023-11-28T07:45:41.476Z,100301.19
2023-11-28T07:48:14.036Z,100295.63
2023-11-28T07:50:46.535Z,100301.97
2023-11-28T07:53:19.126Z,100302.75
2023-11-28T07:55:52.846Z,100305.53
2023-11-28T07:58:25.744Z,100305.81
2023-11-28T08:00:58.288Z,100315.44
2023-11-28T08:03:30.966Z,100324.84
2023-11-28T08:06:04.923Z,100334.00
2023-11-28T08:08:37.868Z,100331.22
2023-11-28T08:11:12.010Z,100334.28
2023-11-28T08:13:44.664Z,100339.09
2023-11-28T08:16:17.380Z,100347.75
2023-11-28T08:18:50.148Z,100349.31
2023-11-28T08:21:23.707Z,100357.97
2023-11-28T08:23:56.215Z,100357.44
2023-11-28T08:26:28.814Z,100356.97
2023-11-28T08:29:03.410Z,100359.28
2023-11-28T08:31:48.514Z,100359.28
2023-11-28T08:34:21.709Z,100367.94
2023-11-28T08:36:54.270Z,100373.81
2023-11-28T08:39:27.418Z,100374.06
2023-11-28T08:42:01.010Z,100379.19
2023-11-28T08:44:33.952Z,100382.75
2023-11-28T08:47:06.993Z,100386.63
2023-11-28T08:49:44.129Z,100382.56
2023-11-28T08:52:17.847Z,100400.88
2023-11-28T08:54:50.463Z,100397.56
2023-11-28T08:57:22.944Z,100398.34
2023-11-28T08:59:55.429Z,100407.50
2023-11-28T09:02:28.128Z,100400.66
2023-11-28T09:05:00.785Z,100407.78
2023-11-28T09:07:34.169Z,100408.53
2023-11-28T09:10:07.079Z,100407.78
2023-11-28T09:12:39.751Z,100409.31
2023-11-28T09:15:12.413Z,100410.84
2023-11-28T09:17:45.470Z,100410.84
2023-11-28T09:20:18.386Z,100422.78
2023-11-28T09:22:51.367Z,100431.94
2023-11-28T09:25:23.925Z,100432.22
2023-11-28T09:27:56.548Z,100443.38
2023-11-28T09:30:33.599Z,100447.69
2023-11-28T09:33:06.485Z,100443.66
2023-11-28T09:35:41.697Z,100442.41
2023-11-28T09:38:14.188Z,100451.06
2023-11-28T09:40:47.036Z,100440.69
2023-11-28T09:43:26.517Z,100448.56
2023-11-28T09:46:02.804Z,100450.88
2023-11-28T09:48:42.078Z,100451.63
2023-11-28T09:51:16.130Z,100450.38
2023-11-28T09:53:55.578Z,100460.28
2023-11-28T09:56:28.773Z,100461.84
2023-11-28T09:59:02.788Z,100470.50
2023-11-28T10:01:39.088Z,100473.56
2023-11-28T10:04:11.952Z,100461.16
2023-11-28T10:06:46.078Z,100471.06
2023-11-28T10:09:19.004Z,100466.53
2023-11-28T10:11:54.258Z,100472.41
2023-11-28T10:14:27.160Z,100480.28
2023-11-28T10:17:06.583Z,100476.25
2023-11-28T10:19:39.507Z,100479.34
2023-11-28T10:22:13.465Z,100479.63
2023-11-28T10:24:46.506Z,100477.09
2023-11-28T10:27:29.207Z,100473.03
2023-11-28T10:30:10.731Z,100474.09
2023-11-28T10:32:44.128Z,100477.94
2023-11-28T10:35:17.873Z,100476.22
2023-11-28T10:37:50.515Z,100481.56
2023-11-28T10:40:23.333Z,100479.81
2023-11-28T10:42:55.793Z,100476.56
2023-11-28T10:45:29.408Z,100474.03
2023-11-28T10:48:03.210Z,100465.94
2023-11-28T10:50:36.855Z,100477.41
2023-11-28T10:53:12.671Z,100472.09
2023-11-28T10:55:53.391Z,100472.38
2023-11-28T10:58:28.983Z,100472.66
2023-11-28T11:01:03.989Z,100465.03
2023-11-28T11:03:38.144Z,100466.06
2023-11-28T11:06:10.750Z,100464.03
2023-11-28T11:08:43.408Z,100462.81
2023-11-28T11:11:17.306Z,100459.50
2023-11-28T11:14:08.268Z,100462.56
2023-11-28T11:16:51.699Z,100464.13
2023-11-28T11:19:25.050Z,100466.44
2023-11-28T11:22:06.542Z,100463.13
2023-11-28T11:24:39.411Z,100459.09
2023-11-28T11:27:12.017Z,100464.69
2023-11-28T11:29:44.537Z,100462.16
2023-11-28T11:32:17.888Z,100464.97
2023-11-28T11:34:51.583Z,100459.38
2023-11-28T11:37:34.263Z,100461.38
2023-11-28T11:40:08.682Z,100470.56
2023-11-28T11:42:41.407Z,100464.97
2023-11-28T11:45:13.916Z,100462.16
2023-11-28T11:47:46.573Z,100473.34
2023-11-28T11:50:28.544Z,100467.75
2023-11-28T11:53:09.593Z,100478.94
2023-11-28T11:55:46.831Z,100471.78
2023-11-28T11:58:19.454Z,100481.44
2023-11-28T12:00:52.202Z,100470.28
2023-11-28T12:03:25.341Z,100473.84
2023-11-28T12:05:59.458Z,100456.78
2023-11-28T12:08:35.203Z,100465.94
2023-11-28T12:11:12.653Z,100461.59
2023-11-28T12:13:45.528Z,100460.84
2023-11-28T12:16:18.525Z,100471.22
2023-11-28T12:18:51.232Z,100465.66
2023-11-28T12:21:23.838Z,100468.94
2023-11-28T12:23:56.393Z,100474.53
2023-11-28T12:26:29.230Z,100484.94
2023-11-28T12:29:02.127Z,100475.78
2023-11-28T12:31:35.327Z,100484.16
2023-11-28T12:34:08.466Z,100483.41
2023-11-28T12:36:46.691Z,100483.41
2023-11-28T12:39:24.342Z,100480.63
2023-11-28T12:41:58.085Z,100483.41
2023-11-28T12:44:32.172Z,100493.03
2023-11-28T12:47:05.049Z,100502.22
2023-11-28T12:49:38.687Z,100502.22
2023-11-28T12:52:11.414Z,100501.16
2023-11-28T12:54:44.497Z,100510.31
2023-11-28T12:57:17.478Z,100519.47
2023-11-28T12:59:50.311Z,100517.94
2023-11-28T13:02:23.962Z,100509.56
2023-11-28T13:04:56.829Z,100513.59
2023-11-28T13:07:35.787Z,100506.47
2023-11-28T13:10:12.199Z,100503.69
2023-11-28T13:12:46.031Z,100504.16
2023-11-28T13:15:18.614Z,100517.38
2023-11-28T13:18:02.602Z,100511.00
2023-11-28T13:20:35.232Z,100514.28
2023-11-28T13:23:07.863Z,100512.75
2023-11-28T13:25:42.909Z,100521.13
2023-11-28T13:28:15.501Z,100528.75
2023-11-28T13:30:48.522Z,100529.22
2023-11-28T13:33:23.795Z,100533.28
2023-11-28T13:36:03.455Z,100530.50
2023-11-28T13:38:36.386Z,100533.28
2023-11-28T13:41:10.058Z,100530.50
2023-11-28T13:43:42.899Z,100534.06
2023-11-28T13:46:15.483Z,100532.53
2023-11-28T13:48:50.699Z,100536.09
2023-11-28T13:51:29.571Z,100533.78
2023-11-28T13:54:02.213Z,100540.13
2023-11-28T13:56:36.073Z,100537.31
2023-11-28T13:59:08.608Z,100539.34
2023-11-28T14:01:41.259Z,100544.19
2023-11-28T14:04:17.778Z,100549.78
2023-11-28T14:06:50.475Z,100549.78
2023-11-28T14:09:23.803Z,100548.22
2023-11-28T14:11:56.393Z,100556.59
2023-11-28T14:14:34.630Z,100549.50
2023-11-28T14:17:12.638Z,100555.84
2023-11-28T14:19:45.323Z,100547.47
2023-11-28T14:22:17.920Z,100549.50
2023-11-28T14:24:50.715Z,100555.06
2023-11-28T14:27:23.294Z,100562.69
2023-11-28T14:29:55.858Z,100556.31
2023-11-28T14:32:28.478Z,100561.16
2023-11-28T14:35:01.176Z,100560.38
2023-11-28T14:37:54.623Z,100553.28
2023-11-28T14:40:27.315Z,100542.09
2023-11-28T14:43:00.468Z,100542.09
2023-11-28T14:45:33.386Z,100550.94
2023-11-28T14:48:06.228Z,100548.91
2023-11-28T14:50:38.922Z,100549.41
2023-11-28T14:53:13.140Z,100547.41
2023-11-28T14:55:45.952Z,100551.44
2023-11-28T14:58:18.573Z,100547.41
2023-11-28T15:00:52.553Z,100549.41
2023-11-28T15:03:25.261Z,100554.97
2023-11-28T15:05:58.949Z,100548.63
2023-11-28T15:08:32.959Z,100544.59
2023-11-28T15:11:06.833Z,100547.88
2023-11-28T15:13:40.504Z,100538.22
2023-11-28T15:16:13.400Z,100546.59
2023-11-28T15:18:45.979Z,100548.63
2023-11-28T15:21:22.589Z,100538.22
2023-11-28T15:24:04.432Z,100545.84
2023-11-28T15:26:37.077Z,100537.47
2023-11-28T15:29:12.677Z,100545.06
2023-11-28T15:31:48.216Z,100544.31
2023-11-28T15:34:21.681Z,100552.69
2023-11-28T15:36:56.484Z,100552.69
2023-11-28T15:39:29.196Z,100546.31
2023-11-28T15:42:01.752Z,100547.59
2023-11-28T15:44:40.617Z,100549.63
2023-11-28T15:47:19.450Z,100548.06
2023-11-28T15:49:52.056Z,100544.50
2023-11-28T15:52:25.328Z,100552.13
2023-11-28T15:54:57.923Z,100551.38
2023-11-28T15:57:30.791Z,100553.88
2023-11-28T16:00:07.650Z,100558.66
2023-11-28T16:02:42.849Z,100549.03
2023-11-28T16:05:15.788Z,100547.50
2023-11-28T16:07:52.816Z,100553.88
2023-11-28T16:10:26.750Z,100558.66
2023-11-28T16:15:46.402Z,100559.47
2023-11-28T16:18:20.024Z,100563.50
2023-11-28T16:20:52.645Z,100560.69
2023-11-28T16:23:25.673Z,100552.31
2023-11-28T16:25:58.281Z,100550.78
2023-11-28T16:28:33.091Z,100547.19
2023-11-28T16:31:06.207Z,100541.63
2023-11-28T16:33:39.664Z,100534.03
2023-11-28T16:36:13.133Z,100538.81
2023-11-28T16:38:45.734Z,100538.81
2023-11-28T16:41:19.003Z,100536.03
2023-11-28T16:43:53.076Z,100538.81
2023-11-28T16:46:25.773Z,100543.66
2023-11-28T16:48:58.297Z,100538.06
2023-11-28T16:51:30.881Z,100528.91
2023-11-28T16:54:04.416Z,100534.97
2023-11-28T16:56:37.000Z,100530.94
2023-11-28T16:59:09.693Z,100526.13
2023-11-28T17:01:43.388Z,100532.97
2023-11-28T17:04:17.796Z,100524.59
2023-11-28T17:06:50.525Z,100523.03
2023-11-28T17:09:23.362Z,100537.00
2023-11-28T17:11:55.907Z,100530.19
2023-11-28T17:14:31.216Z,100528.63
2023-11-28T17:17:06.676Z,100527.41
2023-11-28T17:19:40.288Z,100525.06
2023-11-28T17:22:12.781Z,100527.09
2023-11-28T17:24:47.363Z,100525.06
2023-11-28T17:27:19.896Z,100523.03
2023-11-28T17:29:55.300Z,100529.91
2023-11-28T17:32:27.889Z,100525.56
2023-11-28T17:35:00.625Z,100519.97
2023-11-28T17:37:33.307Z,100519.97
2023-11-28T17:40:08.111Z,100524.31
2023-11-28T17:42:41.476Z,100519.19
2023-11-28T17:45:16.185Z,100524.03
2023-11-28T17:47:49.632Z,100517.66
2023-11-28T17:50:22.529Z,100526.81
2023-11-28T17:52:55.827Z,100520.94
2023-11-28T17:55:28.555Z,100515.34
2023-11-28T17:58:11.925Z,100519.41
2023-11-28T18:00:44.663Z,100517.88
2023-11-28T18:03:17.418Z,100510.72
2023-11-28T18:05:50.022Z,100510.44
2023-11-28T18:08:22.570Z,100511.72
2023-11-28T18:10:55.123Z,100517.28
2023-11-28T18:13:28.074Z,100514.22
2023-11-28T18:16:00.810Z,100519.03
2023-11-28T18:18:34.324Z,100515.19
2023-11-28T18:21:15.213Z,100514.41
2023-11-28T18:23:54.259Z,100520.50
2023-11-28T18:26:27.065Z,100509.03
2023-11-28T18:28:59.780Z,100505.19
2023-11-28T18:31:32.382Z,100498.06
2023-11-28T18:34:04.844Z,100490.16
2023-11-28T18:36:40.214Z,100487.06
2023-11-28T18:39:14.326Z,100491.13
2023-11-28T18:41:48.227Z,100481.19
2023-11-28T18:44:21.095Z,100483.75
2023-11-28T18:46:55.027Z,100486.25
2023-11-28T18:49:28.676Z,100489.50
2023-11-28T18:52:02.138Z,100491.25
2023-11-28T18:54:34.695Z,100492.50
2023-11-28T18:57:07.321Z,100493.00
2023-11-28T18:59:40.070Z,100492.72
2023-11-28T19:02:23.076Z,100487.59
2023-11-28T19:04:55.803Z,100481.69
2023-11-28T19:07:28.349Z,100473.81
2023-11-28T19:10:00.845Z,100464.38
2023-11-28T19:12:33.370Z,100465.66
2023-11-28T19:15:06.375Z,100459.78
2023-11-28T19:17:39.015Z,100451.09
2023-11-28T19:20:12.144Z,100445.25
2023-11-28T19:22:44.811Z,100444.94
2023-11-28T19:25:19.408Z,100448.22
2023-11-28T19:27:52.116Z,100445.13
2023-11-28T19:30:25.745Z,100445.63
2023-11-28T19:32:58.456Z,100451.69
2023-11-28T19:35:32.785Z,100460.53
2023-11-28T19:38:05.310Z,100478.56
2023-11-28T19:40:37.812Z,100473.44
2023-11-28T19:43:10.494Z,100461.22
2023-11-28T19:45:43.056Z,100455.34
2023-11-28T19:48:15.887Z,100460.94
2023-11-28T19:50:48.485Z,100451.50
2023-11-28T19:53:21.075Z,100449.19
2023-11-28T19:55:53.792Z,100451.69
2023-11-28T19:58:28.551Z,100445.84
2023-11-28T20:01:02.527Z,100431.13
2023-11-28T20:03:35.377Z,100423.22
2023-11-28T20:06:08.178Z,100418.41
2023-11-28T20:08:42.965Z,100419.19
2023-11-28T20:11:15.509Z,100419.47
2023-11-28T20:13:48.193Z,100418.97
2023-11-28T20:16:20.851Z,100411.66
2023-11-28T20:18:53.427Z,100405.13
2023-11-28T20:21:25.903Z,100406.66
2023-11-28T20:23:59.626Z,100404.91
2023-11-28T20:26:34.334Z,100401.19
2023-11-28T20:29:11.363Z,100407.81
2023-11-28T20:31:44.977Z,100401.25
2023-11-28T20:34:19.000Z,100393.16
2023-11-28T20:37:09.990Z,100392.22
2023-11-28T20:39:48.383Z,100391.22
2023-11-28T20:42:25.416Z,100384.69
2023-11-28T20:44:58.166Z,100383.72
2023-11-28T20:47:31.001Z,100376.38
2023-11-28T20:50:08.931Z,100381.81
2023-11-28T20:52:41.487Z,100379.28
2023-11-28T20:55:14.139Z,100372.72
2023-11-28T20:57:46.879Z,100366.66
2023-11-28T21:00:19.614Z,100372.53
2023-11-28T21:02:52.296Z,100363.69
2023-11-28T21:05:24.947Z,100371.06
2023-11-28T21:07:57.792Z,100371.34
2023-11-28T21:10:30.498Z,100360.47
2023-11-28T21:13:03.136Z,100355.16
2023-11-28T21:15:35.736Z,100349.56
2023-11-28T21:18:11.153Z,100358.22
2023-11-28T21:20:43.995Z,100340.69
2023-11-28T21:23:16.772Z,100348.31
2023-11-28T21:25:49.459Z,100341.47
2023-11-28T21:28:26.061Z,100319.13
2023-11-28T21:30:59.132Z,100331.06
2023-11-28T21:33:38.821Z,100327.53
2023-11-28T21:36:13.631Z,100317.59
2023-11-28T21:38:48.215Z,100315.31
2023-11-28T21:41:22.207Z,100314.50
2023-11-28T21:43:54.760Z,100305.38
2023-11-28T21:46:27.888Z,100307.41
2023-11-28T21:49:01.811Z,100305.84
2023-11-28T21:51:34.425Z,100308.38
2023-11-28T21:54:06.993Z,100307.59
2023-11-28T21:56:39.732Z,100303.28
2023-11-28T21:59:12.355Z,100311.66
2023-11-28T22:01:44.917Z,100299.47
2023-11-28T22:04:18.062Z,100302.25
2023-11-28T22:06:52.837Z,100308.31
2023-11-28T22:09:25.476Z,100303.22
2023-11-28T22:11:58.012Z,100295.31
2023-11-28T22:14:31.103Z,100281.06
2023-11-28T22:17:03.917Z,100284.38
2023-11-28T22:19:36.556Z,100275.72
2023-11-28T22:22:09.012Z,100275.72
2023-11-28T22:24:41.585Z,100271.88
2023-11-28T22:27:16.917Z,100269.53
2023-11-28T22:29:49.442Z,100272.06
2023-11-28T22:32:22.810Z,100266.19
2023-11-28T22:34:55.420Z,100277.06
2023-11-28T22:37:28.189Z,100281.13
2023-11-28T22:40:00.776Z,100272.47
2023-11-28T22:42:33.354Z,100263.81
2023-11-28T22:45:07.212Z,100252.38
2023-11-28T22:47:40.659Z,100250.84
2023-11-28T22:50:13.357Z,100241.41
2023-11-28T22:52:51.832Z,100239.13
2023-11-28T22:55:24.381Z,100245.19
2023-11-28T22:57:56.890Z,100238.06
2023-11-28T23:00:29.958Z,100235.00
2023-11-28T23:03:03.207Z,100233.94
2023-11-28T23:05:35.827Z,100235.22
2023-11-28T23:08:08.417Z,100229.34
2023-11-28T23:10:41.700Z,100225.81
2023-11-28T23:13:14.280Z,100233.88
2023-11-28T23:15:48.818Z,100216.06
2023-11-28T23:18:22.034Z,100222.94
2023-11-28T23:20:57.441Z,100224.19
2023-11-28T23:23:30.045Z,100223.13
2023-11-28T23:26:02.862Z,100220.06
2023-11-28T23:28:35.584Z,100211.44
2023-11-28T23:31:08.233Z,100205.06
2023-11-28T23:33:40.852Z,100210.88
2023-11-28T23:36:13.553Z,100203.72
2023-11-28T23:38:46.986Z,100199.13
2023-11-28T23:41:19.736Z,100198.38
2023-11-28T23:43:52.516Z,100192.81
2023-11-28T23:46:25.191Z,100183.38
2023-11-28T23:49:05.101Z,100171.44
2023-11-28T23:51:37.951Z,100177.50
2023-11-28T23:54:10.552Z,100170.88
2023-11-28T23:56:43.215Z,100163.03
2023-11-28T23:59:15.861Z,100155.91
